Time;durP1;ratioP1;P1;durP2;ratioP2;P2;SDS_P1;SDS_P2;PMS_P1;PMS_P2;Temp;Humidity;BMP_temperature;BMP_pressure;BME280_temperature;BME280_humidity;BME280_pressure;Samples;Min_cycle;Max_cycle;Signal;HPM_P1;HPM_P2
2021/01/23 00:00:50;;;;;;;0.27;0.27;;;5.60;99.90;;;;;;5013520;28;20277;-82
2021/01/23 00:03:17;;;;;;;4.50;0.47;;;5.60;99.90;;;;;;5010370;28;20181;-82
2021/01/23 00:05:42;;;;;;;2.60;2.40;;;5.60;99.90;;;;;;5016659;28;20183;-82
2021/01/23 00:08:08;;;;;;;0.60;0.60;;;5.70;99.90;;;;;;5017020;28;20193;-82
2021/01/23 00:10:33;;;;;;;1.00;0.60;;;5.60;99.90;;;;;;5014439;28;20196;-82
2021/01/23 00:12:59;;;;;;;3.60;1.63;;;5.60;99.90;;;;;;5014370;28;20186;-82
2021/01/23 00:15:24;;;;;;;2.77;2.67;;;5.60;99.90;;;;;;5014494;28;20332;-83
2021/01/23 00:17:50;;;;;;;0.13;0.13;;;5.60;99.90;;;;;;5013574;28;20182;-81
2021/01/23 00:20:16;;;;;;;0.30;0.30;;;5.60;99.90;;;;;;5013231;28;20214;-82
2021/01/23 00:22:41;;;;;;;0.60;0.60;;;5.60;99.90;;;;;;5015551;28;20186;-82
2021/01/23 00:25:07;;;;;;;0.30;0.20;;;5.60;99.90;;;;;;5015017;28;20178;-82
2021/01/23 00:27:33;;;;;;;1.43;0.47;;;5.60;99.90;;;;;;5014136;28;20182;-81
2021/01/23 00:29:58;;;;;;;0.40;0.40;;;5.70;99.90;;;;;;5014732;28;20210;-82
2021/01/23 00:32:25;;;;;;;2.87;0.83;;;5.60;99.90;;;;;;5014265;28;20222;-82
2021/01/23 00:34:51;;;;;;;0.57;0.33;;;5.60;99.90;;;;;;5014321;28;20643;-82
2021/01/23 00:37:16;;;;;;;3.00;0.30;;;5.70;99.90;;;;;;5013695;28;20201;-82
2021/01/23 00:39:42;;;;;;;1.63;0.20;;;5.60;99.90;;;;;;5018902;28;20209;-83
2021/01/23 00:42:08;;;;;;;0.30;0.30;;;5.60;99.90;;;;;;5013362;28;20212;-80
2021/01/23 00:44:33;;;;;;;0.10;0.10;;;5.60;99.90;;;;;;5013596;28;20247;-80
2021/01/23 00:46:59;;;;;;;0.20;0.20;;;5.70;99.90;;;;;;5013205;28;20190;-83
2021/01/23 00:49:25;;;;;;;0.50;0.30;;;5.70;99.90;;;;;;5013293;28;20238;-82
2021/01/23 00:51:50;;;;;;;0.30;0.30;;;5.60;99.90;;;;;;5012598;28;20605;-85
2021/01/23 00:54:16;;;;;;;0.20;0.20;;;5.60;99.90;;;;;;5013178;28;20238;-85
2021/01/23 00:56:42;;;;;;;0.20;0.20;;;5.60;99.90;;;;;;5013042;28;20290;-82
2021/01/23 00:59:07;;;;;;;0.10;0.10;;;5.60;99.90;;;;;;5013072;28;20234;-82
2021/01/23 01:01:33;;;;;;;1.50;0.50;;;5.60;99.90;;;;;;5012407;28;20384;-82
2021/01/23 01:03:58;;;;;;;0.10;0.10;;;5.70;99.90;;;;;;5012909;28;20236;-83
2021/01/23 01:06:24;;;;;;;0.83;0.77;;;5.70;99.90;;;;;;5014619;28;20601;-81
2021/01/23 01:08:50;;;;;;;0.33;0.33;;;5.70;99.90;;;;;;5012958;28;20266;-82
2021/01/23 01:11:15;;;;;;;1.13;0.70;;;5.70;99.90;;;;;;5011136;28;20242;-82
2021/01/23 01:13:41;;;;;;;0.10;0.10;;;5.70;99.90;;;;;;5014069;28;20273;-82
2021/01/23 01:16:06;;;;;;;0.10;0.10;;;5.70;99.90;;;;;;5011944;28;20247;-82
2021/01/23 01:18:32;;;;;;;0.10;0.10;;;5.70;99.90;;;;;;5012481;28;20596;-80
2021/01/23 01:20:57;;;;;;;0.50;0.30;;;5.70;99.90;;;;;;5012035;28;20863;-82
2021/01/23 01:23:23;;;;;;;0.20;0.20;;;5.60;99.90;;;;;;5015211;28;20208;-82
2021/01/23 01:25:48;;;;;;;0.20;0.20;;;5.60;99.90;;;;;;5011599;28;20190;-82
2021/01/23 01:28:14;;;;;;;0.10;0.10;;;5.60;99.90;;;;;;5013236;28;20613;-81
2021/01/23 01:30:39;;;;;;;0.47;0.47;;;5.50;99.90;;;;;;5012783;28;20190;-83
2021/01/23 01:33:05;;;;;;;0.20;0.20;;;5.60;99.90;;;;;;5011711;28;20199;-82
2021/01/23 01:35:31;;;;;;;0.23;0.23;;;5.60;99.90;;;;;;5012142;28;20581;-83
2021/01/23 01:37:57;;;;;;;0.30;0.30;;;5.60;99.90;;;;;;5016755;28;20193;-82
2021/01/23 01:40:23;;;;;;;0.10;0.10;;;5.50;99.90;;;;;;5012040;28;20184;-81
2021/01/23 01:42:48;;;;;;;1.10;1.10;;;5.50;99.90;;;;;;5015152;28;20202;-81
2021/01/23 01:45:16;;;;;;;0.10;0.10;;;5.50;99.90;;;;;;5017726;28;20313;-82
2021/01/23 01:47:42;;;;;;;0.40;0.30;;;5.40;99.90;;;;;;5015489;28;20198;-82
2021/01/23 01:50:09;;;;;;;0.17;0.17;;;5.40;99.90;;;;;;5011900;28;20218;-82
2021/01/23 01:52:35;;;;;;;0.20;0.20;;;5.40;99.90;;;;;;5011887;28;20190;-82
2021/01/23 01:55:01;;;;;;;0.30;0.30;;;5.40;99.90;;;;;;5011230;28;20647;-80
2021/01/23 01:57:26;;;;;;;0.73;0.53;;;5.40;99.90;;;;;;5014873;28;20220;-82
2021/01/23 01:59:52;;;;;;;0.37;0.37;;;5.40;99.90;;;;;;5011653;28;21105;-82
2021/01/23 02:02:45;;;;;;;0.60;0.60;;;5.30;99.90;;;;;;5012797;28;20182;-82
2021/01/23 02:05:22;;;;;;;2.87;0.60;;;5.30;99.90;;;;;;5012078;28;20212;-82
2021/01/23 02:08:12;;;;;;;0.30;0.30;;;5.30;99.90;;;;;;5011312;28;20203;-83
2021/01/23 02:11:11;;;;;;;0.33;0.33;;;5.30;99.90;;;;;;5011812;28;20186;-82
2021/01/23 02:13:44;;;;;;;0.20;0.20;;;5.40;99.90;;;;;;5007794;28;20189;-81
2021/01/23 02:16:16;;;;;;;0.17;0.17;;;5.40;99.90;;;;;;5011338;28;20577;-82
2021/01/23 02:18:53;;;;;;;0.30;0.30;;;5.30;99.90;;;;;;5012227;28;20284;-82
2021/01/23 02:21:43;;;;;;;0.10;0.10;;;5.30;99.90;;;;;;5012147;28;20243;-82
2021/01/23 02:24:09;;;;;;;0.40;0.40;;;5.30;99.90;;;;;;4999795;28;20216;-80
2021/01/23 02:26:55;;;;;;;0.20;0.20;;;5.20;99.90;;;;;;5009423;28;20271;-82
2021/01/23 02:29:21;;;;;;;0.87;0.20;;;5.20;99.90;;;;;;5001912;28;20201;-82
2021/01/23 02:32:00;;;;;;;0.20;0.20;;;5.20;99.90;;;;;;5010481;28;20182;-82
2021/01/23 02:34:28;;;;;;;0.20;0.20;;;5.20;99.90;;;;;;5012083;28;20193;-82
2021/01/23 02:36:55;;;;;;;0.37;0.37;;;5.20;99.90;;;;;;5005815;28;20275;-83
2021/01/23 02:39:23;;;;;;;0.10;0.10;;;5.10;99.90;;;;;;5008888;28;20269;-83
2021/01/23 02:41:51;;;;;;;0.27;0.27;;;5.10;99.90;;;;;;5008612;28;20578;-82
2021/01/23 02:44:16;;;;;;;0.40;0.40;;;5.10;99.90;;;;;;5011174;28;20189;-82
2021/01/23 02:46:42;;;;;;;0.67;0.30;;;5.10;99.90;;;;;;5011096;28;20215;-82
2021/01/23 02:49:08;;;;;;;0.30;0.30;;;5.00;99.90;;;;;;5010638;28;20209;-82
2021/01/23 02:51:48;;;;;;;0.87;0.60;;;5.00;99.90;;;;;;5011909;28;20288;-82
2021/01/23 02:54:31;;;;;;;0.20;0.20;;;4.90;99.90;;;;;;5010715;28;20800;-82
2021/01/23 02:57:01;;;;;;;1.50;0.43;;;4.90;99.90;;;;;;5010733;28;20658;-80
2021/01/23 02:59:29;;;;;;;0.07;0.07;;;4.90;99.90;;;;;;5009931;28;20342;-81
2021/01/23 03:01:56;;;;;;;0.90;0.90;;;4.80;99.90;;;;;;5009720;28;20215;-81
2021/01/23 03:04:23;;;;;;;0.27;0.27;;;4.80;99.90;;;;;;5010596;28;20677;-81
2021/01/23 03:06:50;;;;;;;1.17;0.30;;;4.80;99.90;;;;;;5012193;28;20192;-82
2021/01/23 03:09:20;;;;;;;0.30;0.30;;;4.80;99.90;;;;;;5010993;28;20260;-81
2021/01/23 03:11:46;;;;;;;0.20;0.20;;;4.80;99.90;;;;;;5011151;28;20186;-80
2021/01/23 03:14:11;;;;;;;0.07;0.07;;;4.80;99.90;;;;;;5010635;28;20191;-82
2021/01/23 03:16:38;;;;;;;1.17;0.50;;;4.70;99.90;;;;;;5011428;28;20218;-81
2021/01/23 03:19:04;;;;;;;0.17;0.17;;;4.70;99.90;;;;;;5010009;28;20248;-82
2021/01/23 03:21:30;;;;;;;0.30;0.30;;;4.70;99.90;;;;;;5010240;28;20194;-82
2021/01/23 03:23:55;;;;;;;1.03;1.03;;;4.80;99.90;;;;;;5011580;28;20195;-81
2021/01/23 03:26:21;;;;;;;0.30;0.30;;;4.70;99.90;;;;;;5010730;28;20216;-83
2021/01/23 03:28:47;;;;;;;7.53;0.50;;;4.70;99.90;;;;;;5010117;28;20559;-81
2021/01/23 03:31:12;;;;;;;0.20;0.20;;;4.70;99.90;;;;;;5009571;28;20187;-82
2021/01/23 03:33:38;;;;;;;0.20;0.20;;;4.70;99.90;;;;;;5009738;28;20196;-82
2021/01/23 03:36:04;;;;;;;0.40;0.40;;;4.70;99.90;;;;;;5008852;28;20212;-82
2021/01/23 03:38:29;;;;;;;0.20;0.20;;;4.70;99.90;;;;;;5006228;28;20240;-82
2021/01/23 03:40:55;;;;;;;0.13;0.13;;;4.70;99.90;;;;;;5009583;28;20209;-82
2021/01/23 03:43:20;;;;;;;0.57;0.57;;;4.70;99.90;;;;;;5011452;28;20538;-82
2021/01/23 03:45:46;;;;;;;0.20;0.20;;;4.70;99.90;;;;;;5011551;28;20201;-82
2021/01/23 03:48:12;;;;;;;0.10;0.10;;;4.70;99.90;;;;;;5011427;28;20619;-82
2021/01/23 03:50:37;;;;;;;0.07;0.07;;;4.60;99.90;;;;;;5010237;28;20204;-82
2021/01/23 03:53:03;;;;;;;0.10;0.10;;;4.50;99.90;;;;;;5009695;28;20224;-82
2021/01/23 03:55:28;;;;;;;0.10;0.10;;;4.50;99.90;;;;;;5010706;28;20209;-82
2021/01/23 03:57:54;;;;;;;3.47;2.27;;;4.50;99.90;;;;;;5011239;28;20689;-81
2021/01/23 04:00:20;;;;;;;1.10;0.40;;;4.50;99.90;;;;;;5009426;28;20196;-82
2021/01/23 04:02:45;;;;;;;0.20;0.20;;;4.40;99.90;;;;;;5011178;28;20204;-82
2021/01/23 04:05:11;;;;;;;1.13;0.17;;;4.50;99.90;;;;;;5010352;28;20185;-80
2021/01/23 04:07:37;;;;;;;0.10;0.10;;;4.40;99.90;;;;;;5010922;28;20189;-82
2021/01/23 04:10:04;;;;;;;0.40;0.40;;;4.50;99.90;;;;;;5009027;28;20201;-82
2021/01/23 04:12:31;;;;;;;0.10;0.10;;;4.40;99.90;;;;;;5010190;28;20185;-82
2021/01/23 04:14:56;;;;;;;0.10;0.10;;;4.40;99.90;;;;;;5011161;28;20185;-82
2021/01/23 04:17:22;;;;;;;0.57;0.50;;;4.50;99.90;;;;;;5011172;28;20217;-80
2021/01/23 04:19:47;;;;;;;0.10;0.10;;;4.60;99.90;;;;;;5009932;28;20220;-82
2021/01/23 04:22:13;;;;;;;0.10;0.10;;;4.70;99.90;;;;;;5009408;28;20205;-82
2021/01/23 04:24:39;;;;;;;0.10;0.10;;;4.70;99.90;;;;;;5010048;28;20191;-81
2021/01/23 04:27:04;;;;;;;0.10;0.10;;;4.60;99.90;;;;;;5009793;28;20200;-81
2021/01/23 04:29:30;;;;;;;0.10;0.10;;;4.60;99.90;;;;;;5008897;28;20204;-82
2021/01/23 04:31:56;;;;;;;0.10;0.10;;;4.60;99.90;;;;;;5009742;28;20285;-82
2021/01/23 04:34:21;;;;;;;0.30;0.30;;;4.60;99.90;;;;;;5025753;28;20186;-82
2021/01/23 04:36:47;;;;;;;0.20;0.20;;;4.60;99.90;;;;;;5010319;28;20216;-82
2021/01/23 04:39:12;;;;;;;0.00;0.00;;;4.50;99.90;;;;;;5003116;28;20256;-82
2021/01/23 04:41:38;;;;;;;0.20;0.17;;;4.50;99.90;;;;;;5009152;28;20205;-82
2021/01/23 04:44:04;;;;;;;0.30;0.30;;;4.50;99.90;;;;;;5009709;28;20194;-82
2021/01/23 04:46:30;;;;;;;0.10;0.10;;;4.40;99.90;;;;;;5010623;28;20204;-83
2021/01/23 04:48:56;;;;;;;0.20;0.20;;;4.40;99.90;;;;;;5013463;28;20640;-82
2021/01/23 04:51:22;;;;;;;0.53;0.30;;;4.20;99.90;;;;;;5012494;28;20198;-82
2021/01/23 04:53:48;;;;;;;0.33;0.17;;;4.10;99.90;;;;;;5012514;28;20641;-82
2021/01/23 04:56:13;;;;;;;0.10;0.10;;;4.10;99.90;;;;;;5014551;28;20304;-82
2021/01/23 04:58:39;;;;;;;0.27;0.27;;;4.10;99.90;;;;;;5013159;28;20232;-82
2021/01/23 05:01:05;;;;;;;0.10;0.10;;;4.10;99.90;;;;;;5013429;28;20276;-82
2021/01/23 05:03:30;;;;;;;0.80;0.80;;;4.20;99.90;;;;;;5013107;28;20225;-81
2021/01/23 05:06:06;;;;;;;0.20;0.20;;;4.20;99.90;;;;;;5013259;28;20814;-81
2021/01/23 05:08:37;;;;;;;0.10;0.10;;;4.30;99.90;;;;;;5014134;28;20224;-83
2021/01/23 05:11:04;;;;;;;0.47;0.47;;;4.30;99.90;;;;;;5011962;28;20191;-82
2021/01/23 05:13:29;;;;;;;0.43;0.43;;;4.30;99.90;;;;;;5013938;28;20225;-82
2021/01/23 05:15:55;;;;;;;0.10;0.10;;;4.30;99.90;;;;;;5006801;28;20300;-82
2021/01/23 05:18:21;;;;;;;0.10;0.10;;;4.20;99.90;;;;;;5007170;28;20196;-81
2021/01/23 05:20:47;;;;;;;0.20;0.20;;;4.10;99.90;;;;;;5012102;28;20189;-82
2021/01/23 05:23:14;;;;;;;0.40;0.40;;;3.90;99.90;;;;;;5012629;28;20196;-82
2021/01/23 05:25:41;;;;;;;0.83;0.20;;;3.90;99.90;;;;;;5012630;28;20189;-82
2021/01/23 05:28:09;;;;;;;0.10;0.10;;;3.90;99.90;;;;;;5012300;28;20584;-82
2021/01/23 05:30:46;;;;;;;0.13;0.13;;;3.90;99.90;;;;;;5011411;28;20192;-80
2021/01/23 05:33:17;;;;;;;0.10;0.10;;;3.90;99.90;;;;;;5013263;28;20192;-82
2021/01/23 05:35:44;;;;;;;0.70;0.70;;;3.80;99.90;;;;;;5012439;28;20212;-82
2021/01/23 05:38:18;;;;;;;0.20;0.20;;;3.80;99.90;;;;;;5014861;28;20668;-82
2021/01/23 05:40:43;;;;;;;0.10;0.10;;;3.80;99.90;;;;;;5011761;28;20188;-80
2021/01/23 05:43:09;;;;;;;0.13;0.13;;;3.70;99.90;;;;;;5012594;28;20191;-80
2021/01/23 05:45:35;;;;;;;0.77;0.50;;;3.70;99.90;;;;;;5013578;28;20267;-82
2021/01/23 05:48:09;;;;;;;0.20;0.20;;;3.70;99.90;;;;;;5014127;28;20193;-82
2021/01/23 05:50:35;;;;;;;0.30;0.30;;;3.60;99.90;;;;;;5012637;28;20688;-82
2021/01/23 05:53:00;;;;;;;0.20;0.20;;;3.60;99.90;;;;;;5011971;28;20214;-82
2021/01/23 05:55:26;;;;;;;0.33;0.33;;;3.50;99.90;;;;;;5013753;28;20693;-81
2021/01/23 05:57:54;;;;;;;0.20;0.20;;;3.50;99.90;;;;;;5011287;28;20219;-80
2021/01/23 06:00:24;;;;;;;0.30;0.30;;;3.40;99.90;;;;;;5009682;28;20182;-82
2021/01/23 06:02:50;;;;;;;0.30;0.30;;;3.40;99.90;;;;;;5012521;28;20241;-82
2021/01/23 06:05:17;;;;;;;0.10;0.10;;;3.40;99.90;;;;;;5011723;28;20306;-84
2021/01/23 06:07:46;;;;;;;0.10;0.10;;;3.40;99.90;;;;;;5012065;28;20189;-84
2021/01/23 06:10:39;;;;;;;0.20;0.20;;;3.20;99.90;;;;;;5011381;28;20210;-84
2021/01/23 06:13:25;;;;;;;0.20;0.20;;;3.20;99.90;;;;;;5007951;28;20201;-84
2021/01/23 06:15:51;;;;;;;0.20;0.20;;;3.20;99.90;;;;;;5010494;28;20204;-84
2021/01/23 06:18:37;;;;;;;0.13;0.13;;;3.10;99.90;;;;;;5012849;28;20201;-84
2021/01/23 06:21:03;;;;;;;1.50;1.07;;;3.20;99.90;;;;;;5010348;28;20193;-82
2021/01/23 06:23:49;;;;;;;0.17;0.17;;;3.30;99.90;;;;;;5011425;28;20187;-81
2021/01/23 06:26:16;;;;;;;0.43;0.30;;;3.40;99.90;;;;;;5010956;28;20191;-81
2021/01/23 06:28:41;;;;;;;0.20;0.20;;;3.50;99.90;;;;;;5011829;28;20214;-80
2021/01/23 06:31:26;;;;;;;0.27;0.27;;;3.50;99.90;;;;;;5012484;28;20184;-82
2021/01/23 06:33:52;;;;;;;0.10;0.10;;;3.40;99.90;;;;;;5011424;28;20680;-81
2021/01/23 06:36:18;;;;;;;0.17;0.17;;;3.40;99.90;;;;;;5010207;28;20212;-80
2021/01/23 06:39:02;;;;;;;0.77;0.77;;;3.40;99.90;;;;;;5013956;28;20203;-81
2021/01/23 06:41:29;;;;;;;0.10;0.10;;;3.30;99.90;;;;;;5010533;28;20231;-82
2021/01/23 06:44:11;;;;;;;0.87;0.60;;;3.40;99.90;;;;;;5011533;28;20198;-84
2021/01/23 06:46:39;;;;;;;0.07;0.07;;;3.20;99.90;;;;;;5009802;28;20278;-80
2021/01/23 06:49:07;;;;;;;0.40;0.40;;;3.10;99.90;;;;;;5005966;28;20205;-79
2021/01/23 06:51:33;;;;;;;0.30;0.30;;;3.20;99.90;;;;;;5008829;28;20547;-81
2021/01/23 06:54:31;;;;;;;0.10;0.10;;;3.40;99.90;;;;;;5009567;28;20192;-79
2021/01/23 06:56:57;;;;;;;0.20;0.20;;;3.60;99.90;;;;;;4977397;28;20603;-80
2021/01/23 06:59:26;;;;;;;0.10;0.10;;;3.80;99.90;;;;;;5007790;28;20223;-83
2021/01/23 07:01:56;;;;;;;0.10;0.10;;;4.00;99.90;;;;;;5008690;28;20644;-83
2021/01/23 07:04:21;;;;;;;0.27;0.27;;;4.20;99.90;;;;;;5011049;28;20177;-82
2021/01/23 07:06:47;;;;;;;0.30;0.30;;;4.30;99.90;;;;;;5007698;28;20534;-83
2021/01/23 07:09:13;;;;;;;0.73;0.73;;;4.50;99.90;;;;;;5004645;28;20205;-82
2021/01/23 07:11:39;;;;;;;0.20;0.20;;;4.60;99.90;;;;;;5006627;28;20180;-82
2021/01/23 07:14:06;;;;;;;0.20;0.20;;;4.50;99.90;;;;;;5005166;28;20264;-83
2021/01/23 07:16:39;;;;;;;0.10;0.10;;;4.50;99.90;;;;;;5012419;28;20208;-82
2021/01/23 07:19:08;;;;;;;0.07;0.07;;;4.50;99.90;;;;;;5011403;28;20767;-83
2021/01/23 07:21:45;;;;;;;0.40;0.40;;;4.60;99.90;;;;;;5003158;28;20264;-82
2021/01/23 07:24:12;;;;;;;0.53;0.27;;;4.60;99.90;;;;;;5002081;28;20186;-83
2021/01/23 07:26:38;;;;;;;0.90;0.30;;;4.60;99.90;;;;;;5006380;28;20664;-82
2021/01/23 07:29:04;;;;;;;0.33;0.33;;;4.60;99.90;;;;;;5012124;28;20209;-83
2021/01/23 07:31:32;;;;;;;0.30;0.30;;;4.60;99.90;;;;;;5002479;28;20559;-83
2021/01/23 07:34:08;;;;;;;0.40;0.40;;;4.60;99.90;;;;;;5004719;28;20194;-83
2021/01/23 07:36:42;;;;;;;0.10;0.10;;;4.50;99.90;;;;;;5006379;28;20223;-83
2021/01/23 07:39:10;;;;;;;0.10;0.10;;;4.40;99.90;;;;;;5021673;28;20205;-82
2021/01/23 07:41:38;;;;;;;0.20;0.20;;;4.50;99.90;;;;;;5001068;28;20206;-83
2021/01/23 07:44:08;;;;;;;0.30;0.30;;;4.60;99.90;;;;;;5007499;28;20712;-83
2021/01/23 07:46:39;;;;;;;0.33;0.33;;;4.70;99.90;;;;;;5009250;28;20424;-83
2021/01/23 07:49:06;;;;;;;0.20;0.20;;;4.80;99.90;;;;;;5006821;28;20268;-81
2021/01/23 07:51:32;;;;;;;0.20;0.20;;;4.80;99.90;;;;;;5008774;28;20193;-83
2021/01/23 07:54:05;;;;;;;0.27;0.27;;;4.90;99.90;;;;;;5008705;28;20539;-83
2021/01/23 07:56:31;;;;;;;0.17;0.17;;;4.90;99.90;;;;;;5010960;28;20209;-83
2021/01/23 07:58:56;;;;;;;1.23;0.40;;;5.00;99.90;;;;;;5010302;28;20208;-81
2021/01/23 08:01:23;;;;;;;0.40;0.40;;;5.00;99.90;;;;;;5002054;28;20222;-82
2021/01/23 08:03:49;;;;;;;0.30;0.30;;;5.10;99.90;;;;;;5002396;28;20189;-84
2021/01/23 08:06:25;;;;;;;0.17;0.17;;;5.10;99.90;;;;;;5008433;28;20185;-82
2021/01/23 08:08:52;;;;;;;0.83;0.40;;;5.20;99.90;;;;;;5007400;28;20369;-83
2021/01/23 08:11:37;;;;;;;0.10;0.10;;;5.30;99.90;;;;;;5009165;28;20550;-83
2021/01/23 08:14:13;;;;;;;0.17;0.17;;;5.40;99.90;;;;;;5000516;28;20193;-81
2021/01/23 08:16:53;;;;;;;0.50;0.50;;;5.40;99.90;;;;;;5009089;28;20614;-82
2021/01/23 08:19:19;;;;;;;0.80;0.40;;;5.30;99.90;;;;;;5004437;28;20272;-84
2021/01/23 08:22:07;;;;;;;0.63;0.40;;;5.40;99.90;;;;;;4997193;28;20187;-85
2021/01/23 08:24:33;;;;;;;1.10;0.30;;;5.50;99.90;;;;;;5011162;28;20190;-85
2021/01/23 08:27:18;;;;;;;0.67;0.67;;;5.50;99.90;;;;;;5011872;28;20193;-83
2021/01/23 08:29:45;;;;;;;0.30;0.30;;;5.50;99.90;;;;;;5008262;28;20201;-85
2021/01/23 08:32:12;;;;;;;0.30;0.30;;;5.60;99.90;;;;;;5011577;28;20186;-84
2021/01/23 08:34:38;;;;;;;0.73;0.70;;;5.60;99.90;;;;;;5012709;28;20187;-84
2021/01/23 08:37:04;;;;;;;0.53;0.53;;;5.60;99.90;;;;;;5009501;28;20235;-84
2021/01/23 08:39:29;;;;;;;0.20;0.20;;;5.60;99.90;;;;;;5008828;28;20679;-83
2021/01/23 08:41:55;;;;;;;0.53;0.47;;;5.60;99.90;;;;;;5011732;28;20195;-83
2021/01/23 08:44:21;;;;;;;0.30;0.30;;;5.60;99.90;;;;;;5012174;28;20185;-84
2021/01/23 08:46:46;;;;;;;1.27;0.60;;;5.60;99.90;;;;;;5012893;28;20182;-83
2021/01/23 08:49:12;;;;;;;0.30;0.30;;;5.60;99.90;;;;;;5024477;28;20209;-83
2021/01/23 08:51:37;;;;;;;0.13;0.13;;;5.70;99.90;;;;;;5008574;28;20248;-82
2021/01/23 08:54:04;;;;;;;0.43;0.30;;;5.70;99.90;;;;;;5009141;28;20189;-82
2021/01/23 08:56:29;;;;;;;1.00;0.20;;;5.60;99.90;;;;;;5016046;28;20288;-82
2021/01/23 08:58:55;;;;;;;0.30;0.30;;;5.60;99.90;;;;;;5014844;28;20233;-82
2021/01/23 09:01:20;;;;;;;0.20;0.20;;;5.60;99.90;;;;;;5012966;28;20189;-82
2021/01/23 09:03:46;;;;;;;1.40;0.50;;;5.50;99.90;;;;;;5011400;28;20187;-82
2021/01/23 09:06:11;;;;;;;0.63;0.60;;;5.40;99.90;;;;;;5013426;28;20240;-82
2021/01/23 09:08:37;;;;;;;0.47;0.47;;;5.40;99.90;;;;;;5010385;28;20207;-81
2021/01/23 09:11:03;;;;;;;0.10;0.10;;;5.40;99.90;;;;;;5012080;28;20187;-82
2021/01/23 09:13:28;;;;;;;0.30;0.30;;;5.40;99.90;;;;;;5013003;28;20192;-82
2021/01/23 09:15:54;;;;;;;1.60;0.53;;;5.50;99.90;;;;;;5013973;28;20221;-81
2021/01/23 09:18:20;;;;;;;0.23;0.23;;;5.20;99.90;;;;;;5013867;28;20357;-81
2021/01/23 09:20:45;;;;;;;0.53;0.53;;;5.00;99.90;;;;;;5012208;28;20593;-82
2021/01/23 09:23:11;;;;;;;0.60;0.60;;;4.80;99.90;;;;;;5013703;28;20190;-82
2021/01/23 09:25:36;;;;;;;0.77;0.40;;;4.60;99.90;;;;;;5012716;28;20260;-82
2021/01/23 09:28:02;;;;;;;0.00;0.00;;;4.80;99.90;;;;;;5012762;28;20187;-82
2021/01/23 09:30:28;;;;;;;0.60;0.60;;;4.80;99.90;;;;;;5014050;28;20198;-80
2021/01/23 09:32:53;;;;;;;0.50;0.50;;;4.40;99.90;;;;;;5013158;28;20199;-82
2021/01/23 09:35:19;;;;;;;0.23;0.23;;;4.40;99.90;;;;;;5013834;28;20216;-81
2021/01/23 09:37:44;;;;;;;0.20;0.20;;;4.50;99.90;;;;;;5015419;28;20436;-82
2021/01/23 09:40:10;;;;;;;0.90;0.90;;;4.40;99.90;;;;;;5012744;28;20256;-81
2021/01/23 09:42:36;;;;;;;0.63;0.63;;;4.40;99.90;;;;;;5012425;28;20205;-81
2021/01/23 09:45:02;;;;;;;0.40;0.40;;;4.10;99.90;;;;;;5013363;28;20284;-82
2021/01/23 09:47:27;;;;;;;0.77;0.57;;;4.10;99.90;;;;;;5012821;28;20197;-82
2021/01/23 09:49:53;;;;;;;0.37;0.20;;;4.00;99.90;;;;;;5013162;28;20921;-82
2021/01/23 09:52:19;;;;;;;0.30;0.30;;;4.20;99.90;;;;;;5013430;28;20268;-83
2021/01/23 09:54:44;;;;;;;0.30;0.30;;;4.20;99.90;;;;;;5008129;28;20688;-82
2021/01/23 09:57:10;;;;;;;0.10;0.10;;;4.10;99.90;;;;;;5012046;28;20322;-80
2021/01/23 09:59:38;;;;;;;0.30;0.30;;;4.30;99.90;;;;;;5000829;28;20675;-86
2021/01/23 10:02:03;;;;;;;0.10;0.10;;;4.30;99.90;;;;;;5008151;28;20188;-83
2021/01/23 10:04:30;;;;;;;0.57;0.57;;;4.40;99.90;;;;;;5015672;28;20557;-85
2021/01/23 10:06:56;;;;;;;0.60;0.20;;;4.70;99.90;;;;;;5013327;28;20267;-84
2021/01/23 10:09:22;;;;;;;0.87;0.30;;;4.50;99.90;;;;;;5012375;28;20233;-85
2021/01/23 10:11:48;;;;;;;0.57;0.40;;;4.30;99.90;;;;;;5011688;28;20191;-85
2021/01/23 10:14:14;;;;;;;0.50;0.40;;;4.50;99.90;;;;;;5012576;28;20812;-83
2021/01/23 10:16:39;;;;;;;0.30;0.30;;;4.60;99.90;;;;;;5004168;28;20305;-82
2021/01/23 10:19:06;;;;;;;0.30;0.30;;;4.70;99.90;;;;;;5012619;28;20204;-85
2021/01/23 10:21:32;;;;;;;0.60;0.60;;;4.80;99.90;;;;;;5012129;28;20196;-84
2021/01/23 10:23:58;;;;;;;0.33;0.33;;;5.00;99.90;;;;;;5014127;28;20181;-85
2021/01/23 10:26:25;;;;;;;0.20;0.20;;;5.20;99.90;;;;;;5011681;28;20697;-85
2021/01/23 10:28:51;;;;;;;0.23;0.23;;;5.30;99.90;;;;;;5001375;28;20207;-85
2021/01/23 10:31:18;;;;;;;0.10;0.10;;;5.30;99.90;;;;;;5009194;28;20222;-85
2021/01/23 10:33:44;;;;;;;0.50;0.40;;;5.10;99.90;;;;;;5012544;28;20202;-84
2021/01/23 10:36:10;;;;;;;0.10;0.10;;;4.80;99.90;;;;;;5013239;28;20214;-85
2021/01/23 10:38:35;;;;;;;0.33;0.33;;;4.50;99.90;;;;;;5013416;28;20201;-84
2021/01/23 10:41:01;;;;;;;2.43;0.77;;;4.30;99.90;;;;;;5009978;28;20194;-88
2021/01/23 10:43:26;;;;;;;1.13;0.47;;;4.10;99.90;;;;;;5012068;28;20644;-85
2021/01/23 10:45:52;;;;;;;0.23;0.23;;;4.30;99.90;;;;;;5009497;28;20208;-85
2021/01/23 10:48:18;;;;;;;0.40;0.40;;;4.30;99.90;;;;;;5028559;28;20307;-84
2021/01/23 10:50:44;;;;;;;2.67;0.57;;;4.30;99.90;;;;;;5027588;28;20219;-84
2021/01/23 10:53:09;;;;;;;0.20;0.20;;;4.60;99.90;;;;;;5011633;28;20189;-84
2021/01/23 10:55:35;;;;;;;0.00;0.00;;;4.70;99.90;;;;;;5009367;28;20181;-87
2021/01/23 10:58:01;;;;;;;0.50;0.40;;;4.90;99.90;;;;;;5009960;28;20681;-86
2021/01/23 11:00:27;;;;;;;0.50;0.50;;;4.90;99.90;;;;;;5012207;28;20183;-85
2021/01/23 11:02:52;;;;;;;0.27;0.27;;;4.80;99.90;;;;;;5006912;28;20182;-84
2021/01/23 11:05:18;;;;;;;1.17;0.60;;;4.80;99.90;;;;;;5011732;28;20188;-86
2021/01/23 11:07:43;;;;;;;0.30;0.30;;;5.00;99.90;;;;;;5012281;28;20186;-85
2021/01/23 11:10:09;;;;;;;0.70;0.70;;;5.20;99.90;;;;;;5022739;28;20202;-84
2021/01/23 11:12:35;;;;;;;0.93;0.93;;;5.20;99.90;;;;;;5012206;28;20229;-86
2021/01/23 11:15:09;;;;;;;2.43;0.53;;;5.30;99.90;;;;;;5010807;28;20209;-85
2021/01/23 11:17:36;;;;;;;0.40;0.40;;;5.20;99.90;;;;;;5011157;28;20697;-84
2021/01/23 11:20:02;;;;;;;0.20;0.20;;;5.40;99.90;;;;;;5007071;28;20722;-85
2021/01/23 11:22:28;;;;;;;0.40;0.40;;;5.50;99.90;;;;;;5009861;28;20515;-83
2021/01/23 11:24:54;;;;;;;0.67;0.43;;;5.60;99.90;;;;;;5011185;28;20195;-86
2021/01/23 11:27:20;;;;;;;0.10;0.10;;;5.60;99.90;;;;;;4998850;28;20186;-85
2021/01/23 11:29:46;;;;;;;0.40;0.40;;;5.80;99.90;;;;;;5010926;28;20217;-84
2021/01/23 11:32:11;;;;;;;0.77;0.67;;;5.80;99.90;;;;;;5012257;28;20676;-86
2021/01/23 11:34:37;;;;;;;0.37;0.37;;;5.80;99.90;;;;;;5010854;28;20566;-84
2021/01/23 11:37:02;;;;;;;0.10;0.10;;;5.80;99.90;;;;;;5012180;28;20207;-85
2021/01/23 11:39:28;;;;;;;0.57;0.43;;;5.60;99.90;;;;;;5003158;28;20216;-85
2021/01/23 11:41:53;;;;;;;0.30;0.30;;;5.40;99.90;;;;;;5010757;28;20224;-86
2021/01/23 11:44:31;;;;;;;0.20;0.20;;;5.40;99.90;;;;;;5010494;28;20185;-84
2021/01/23 11:46:57;;;;;;;0.50;0.50;;;5.10;99.90;;;;;;5006233;28;20570;-85
2021/01/23 11:49:23;;;;;;;0.50;0.50;;;5.10;99.90;;;;;;5010428;28;20219;-85
2021/01/23 11:51:48;;;;;;;0.77;0.77;;;5.10;99.90;;;;;;5011024;28;20194;-85
2021/01/23 11:54:15;;;;;;;0.83;0.13;;;5.30;99.90;;;;;;5010060;28;20643;-85
2021/01/23 11:56:41;;;;;;;0.40;0.40;;;5.20;99.90;;;;;;5009686;28;20744;-86
2021/01/23 11:59:07;;;;;;;0.73;0.50;;;5.30;99.90;;;;;;5023286;28;20214;-84
2021/01/23 12:01:34;;;;;;;0.20;0.17;;;5.40;99.90;;;;;;5009845;28;20203;-85
2021/01/23 12:03:59;;;;;;;0.03;0.03;;;5.50;99.90;;;;;;5010598;28;20520;-84
2021/01/23 12:06:25;;;;;;;1.37;0.70;;;5.60;99.90;;;;;;5009196;28;20234;-84
2021/01/23 12:08:50;;;;;;;0.50;0.50;;;5.60;99.90;;;;;;5028345;28;20310;-84
2021/01/23 12:11:16;;;;;;;0.30;0.30;;;5.60;99.90;;;;;;5010964;28;20225;-85
2021/01/23 12:13:43;;;;;;;0.10;0.10;;;5.60;99.90;;;;;;5011089;28;20184;-84
2021/01/23 12:16:09;;;;;;;0.87;0.30;;;5.80;99.90;;;;;;5011681;28;20213;-89
2021/01/23 12:18:34;;;;;;;0.27;0.27;;;5.80;99.90;;;;;;5010264;28;20293;-84
2021/01/23 12:21:00;;;;;;;0.87;0.87;;;5.90;99.90;;;;;;5011359;28;20294;-86
2021/01/23 12:23:28;;;;;;;0.30;0.30;;;5.90;99.90;;;;;;5012804;28;20222;-85
2021/01/23 12:26:20;;;;;;;1.90;0.63;;;6.00;99.90;;;;;;5007050;28;20730;-84
2021/01/23 12:28:47;;;;;;;0.20;0.20;;;6.10;99.90;;;;;;5007584;28;20218;-84
2021/01/23 12:31:14;;;;;;;0.17;0.17;;;6.20;99.90;;;;;;5011570;28;20214;-84
2021/01/23 12:33:45;;;;;;;0.10;0.10;;;6.30;99.90;;;;;;5012201;28;20201;-84
2021/01/23 12:36:23;;;;;;;0.40;0.40;;;6.30;99.90;;;;;;5006917;28;20241;-85
2021/01/23 12:38:49;;;;;;;0.53;0.53;;;6.40;99.90;;;;;;4998203;28;20207;-84
2021/01/23 12:41:14;;;;;;;0.30;0.30;;;6.30;99.90;;;;;;4999780;28;20295;-84
2021/01/23 12:43:40;;;;;;;0.00;0.00;;;6.40;99.90;;;;;;5004587;28;20182;-84
2021/01/23 12:46:05;;;;;;;0.40;0.40;;;6.40;99.90;;;;;;5010907;28;20198;-84
2021/01/23 12:48:31;;;;;;;0.77;0.77;;;6.40;99.90;;;;;;5006704;28;20266;-82
2021/01/23 12:50:57;;;;;;;0.33;0.30;;;6.30;99.90;;;;;;5007153;28;20187;-85
2021/01/23 12:53:22;;;;;;;0.57;0.57;;;6.30;99.90;;;;;;5008345;28;20190;-83
2021/01/23 12:55:48;;;;;;;0.40;0.40;;;6.30;99.90;;;;;;5011239;28;20221;-83
2021/01/23 12:58:14;;;;;;;0.70;0.70;;;6.20;99.90;;;;;;5011237;28;20179;-83
2021/01/23 13:00:40;;;;;;;0.47;0.47;;;6.30;99.90;;;;;;5009577;28;20184;-83